Time;durP1;ratioP1;P1;durP2;ratioP2;P2;SDS_P1;SDS_P2;PMS_P1;PMS_P2;Temp;Humidity;BMP_temperature;BMP_pressure;BME280_temperature;BME280_humidity;BME280_pressure;Samples;Min_cycle;Max_cycle;Signal;HPM_P1;HPM_P2
2022/01/31 00:01:32;;;;;;;30.63;12.82;;;4.70;99.90;;;;;;5036582;28;20394;-65
2022/01/31 00:03:59;;;;;;;32.13;12.60;;;4.70;99.90;;;;;;5036464;28;20026;-65
2022/01/31 00:06:25;;;;;;;26.67;11.98;;;4.70;99.90;;;;;;5036746;28;20049;-65
2022/01/31 00:08:52;;;;;;;36.78;12.70;;;4.70;99.90;;;;;;5036669;28;20030;-65
2022/01/31 00:11:19;;;;;;;29.50;11.55;;;4.60;99.90;;;;;;5036350;28;20399;-65
2022/01/31 00:13:57;;;;;;;21.75;11.02;;;4.50;99.90;;;;;;5036190;28;20072;-65
2022/01/31 00:16:26;;;;;;;37.42;13.65;;;4.50;99.90;;;;;;5036179;28;20034;-66
2022/01/31 00:18:52;;;;;;;24.48;11.05;;;4.50;99.90;;;;;;5036442;28;20075;-65
2022/01/31 00:21:19;;;;;;;25.90;11.50;;;4.50;99.90;;;;;;5036365;28;20116;-65
2022/01/31 00:23:45;;;;;;;26.42;12.35;;;4.50;99.90;;;;;;5019109;28;20040;-65
2022/01/31 00:26:12;;;;;;;31.42;13.45;;;4.40;99.90;;;;;;5036108;28;20021;-65
2022/01/31 00:28:38;;;;;;;34.13;14.07;;;4.40;99.90;;;;;;5036347;28;20498;-66
2022/01/31 00:31:09;;;;;;;35.33;14.00;;;4.40;99.90;;;;;;5036161;28;20509;-65
2022/01/31 00:33:35;;;;;;;30.88;13.18;;;4.40;99.90;;;;;;5018405;28;20049;-65
2022/01/31 00:36:02;;;;;;;31.90;13.88;;;4.40;99.90;;;;;;5034824;28;20021;-65
2022/01/31 00:38:30;;;;;;;29.60;14.15;;;4.40;99.90;;;;;;5036229;28;20033;-65
2022/01/31 00:40:57;;;;;;;34.10;14.40;;;4.40;99.90;;;;;;5035950;28;20024;-65
2022/01/31 00:43:23;;;;;;;36.17;14.85;;;4.40;99.90;;;;;;5034611;28;20032;-65
2022/01/31 00:46:02;;;;;;;36.80;17.30;;;4.40;99.90;;;;;;5035891;28;20053;-65
2022/01/31 00:48:34;;;;;;;32.97;16.85;;;4.40;99.90;;;;;;5035813;28;20060;-66
2022/01/31 00:51:04;;;;;;;31.50;16.38;;;4.50;99.90;;;;;;5034556;28;20120;-66
2022/01/31 00:53:32;;;;;;;35.55;18.52;;;4.40;99.90;;;;;;5036143;28;20037;-65
2022/01/31 00:55:59;;;;;;;44.60;18.02;;;4.40;99.90;;;;;;5036019;28;20083;-66
2022/01/31 00:58:25;;;;;;;40.38;16.85;;;4.40;99.90;;;;;;5034351;28;20105;-66
2022/01/31 01:00:52;;;;;;;40.38;18.83;;;4.40;99.90;;;;;;5034401;28;20395;-65
2022/01/31 01:03:19;;;;;;;43.13;18.20;;;4.40;99.90;;;;;;5035849;28;20028;-66
2022/01/31 01:05:48;;;;;;;41.78;18.23;;;4.40;99.90;;;;;;5035775;28;20033;-66
2022/01/31 01:08:15;;;;;;;42.50;18.83;;;4.40;99.90;;;;;;5034280;28;20026;-65
2022/01/31 01:10:45;;;;;;;35.50;16.80;;;4.40;99.90;;;;;;5034023;28;20087;-65
2022/01/31 01:13:13;;;;;;;36.83;16.95;;;4.40;99.90;;;;;;5043955;28;20053;-66
2022/01/31 01:15:40;;;;;;;37.35;17.20;;;4.30;99.90;;;;;;5055294;28;20036;-65
2022/01/31 01:18:06;;;;;;;34.45;16.35;;;4.30;99.90;;;;;;5055445;28;20029;-65
2022/01/31 01:20:33;;;;;;;39.75;17.00;;;4.30;99.90;;;;;;5055168;28;20017;-65
2022/01/31 01:23:01;;;;;;;40.83;18.52;;;4.30;99.90;;;;;;5070420;28;20028;-65
2022/01/31 01:25:29;;;;;;;45.53;19.38;;;4.30;99.90;;;;;;5055072;28;20028;-66
2022/01/31 01:27:56;;;;;;;38.60;17.33;;;4.40;99.90;;;;;;5055387;28;20025;-65
2022/01/31 01:30:23;;;;;;;42.22;18.85;;;4.40;99.90;;;;;;5054965;28;20025;-66
2022/01/31 01:33:17;;;;;;;37.83;16.88;;;4.40;99.90;;;;;;5053637;28;20064;-65
2022/01/31 01:35:38;;;;;;;39.00;17.50;;;4.40;99.90;;;;;;5054603;28;20510;-66
2022/01/31 01:38:07;;;;;;;41.40;18.27;;;4.40;99.90;;;;;;5054834;28;20025;-66
2022/01/31 01:40:39;;;;;;;43.28;18.55;;;4.40;99.90;;;;;;5054676;28;20040;-66
2022/01/31 01:43:07;;;;;;;48.60;19.08;;;4.30;99.90;;;;;;5053562;28;20040;-65
2022/01/31 01:45:34;;;;;;;39.83;19.15;;;4.30;99.90;;;;;;5054624;28;20383;-65
2022/01/31 01:48:01;;;;;;;38.15;16.88;;;4.30;99.90;;;;;;5070133;28;20552;-65
2022/01/31 01:50:28;;;;;;;40.30;18.08;;;4.40;99.90;;;;;;5053667;28;20028;-66
2022/01/31 01:52:55;;;;;;;45.45;18.60;;;4.40;99.90;;;;;;5053205;28;20078;-65
2022/01/31 01:55:22;;;;;;;44.00;19.00;;;4.40;99.90;;;;;;5069992;28;20037;-65
2022/01/31 01:57:49;;;;;;;41.72;17.95;;;4.40;99.90;;;;;;5053267;28;20159;-65
2022/01/31 02:00:24;;;;;;;45.55;19.88;;;4.40;99.90;;;;;;5069882;28;20033;-65
2022/01/31 02:02:51;;;;;;;;;;;4.40;99.90;;;;;;5055111;28;20397;-66
2022/01/31 02:05:19;;;;;;;45.17;19.67;;;4.40;99.90;;;;;;5069843;28;20247;-66
2022/01/31 02:07:47;;;;;;;47.13;21.00;;;4.30;99.90;;;;;;5054247;28;20102;-65
2022/01/31 02:10:17;;;;;;;48.25;20.85;;;4.30;99.90;;;;;;5055076;28;20025;-65
2022/01/31 02:13:07;;;;;;;59.00;22.45;;;4.30;99.90;;;;;;5048545;28;20037;-66
2022/01/31 02:15:55;;;;;;;47.10;20.95;;;4.30;99.90;;;;;;5034546;28;20087;-66
2022/01/31 02:18:48;;;;;;;50.13;22.63;;;4.30;99.90;;;;;;5034122;28;20025;-66
2022/01/31 02:21:33;;;;;;;50.53;22.75;;;4.20;99.90;;;;;;5034096;28;20617;-65
2022/01/31 02:24:08;;;;;;;50.03;21.95;;;4.20;99.90;;;;;;5033540;28;20036;-65
2022/01/31 02:26:41;;;;;;;45.20;22.27;;;4.10;99.90;;;;;;5034345;28;20029;-65
2022/01/31 02:29:33;;;;;;;49.05;20.48;;;4.10;99.90;;;;;;5033832;28;20116;-65
2022/01/31 02:32:00;;;;;;;47.95;21.30;;;4.10;99.90;;;;;;5033969;28;20030;-65
2022/01/31 02:34:27;;;;;;;48.00;21.08;;;4.10;99.90;;;;;;5016085;28;20048;-66
2022/01/31 02:36:53;;;;;;;55.60;22.33;;;4.10;99.90;;;;;;5032582;28;20025;-65
2022/01/31 02:39:20;;;;;;;47.88;20.30;;;4.10;99.90;;;;;;5016087;28;20029;-65
2022/01/31 02:41:48;;;;;;;54.78;21.08;;;4.10;99.90;;;;;;5033763;28;20079;-66
2022/01/31 02:44:16;;;;;;;52.20;21.30;;;4.00;99.90;;;;;;5033712;28;20533;-66
2022/01/31 02:47:11;;;;;;;46.60;19.60;;;4.00;99.90;;;;;;5033239;28;20037;-65
2022/01/31 02:49:49;;;;;;;46.40;21.80;;;4.00;99.90;;;;;;5032493;28;20033;-65
2022/01/31 02:52:18;;;;;;;47.35;20.23;;;4.00;99.90;;;;;;5033943;28;20021;-66
2022/01/31 02:54:46;;;;;;;55.80;23.38;;;4.00;99.90;;;;;;5033460;28;20037;-65
2022/01/31 02:57:14;;;;;;;52.35;20.55;;;4.00;99.90;;;;;;5032353;28;20033;-65
2022/01/31 02:59:41;;;;;;;45.63;20.75;;;4.00;99.90;;;;;;5032289;28;20072;-65
2022/01/31 03:02:08;;;;;;;41.83;20.73;;;4.00;99.90;;;;;;5033341;28;20037;-66
2022/01/31 03:04:34;;;;;;;53.15;21.42;;;4.00;99.90;;;;;;5032252;28;20029;-65
2022/01/31 03:07:07;;;;;;;44.55;20.13;;;4.00;99.90;;;;;;5033357;28;20458;-66
2022/01/31 03:09:34;;;;;;;46.47;19.45;;;4.00;99.90;;;;;;5033408;28;20074;-65
2022/01/31 03:12:04;;;;;;;48.13;19.67;;;4.00;99.90;;;;;;5033360;28;20021;-66
2022/01/31 03:14:38;;;;;;;48.88;19.35;;;3.90;99.90;;;;;;5033039;28;20046;-65
2022/01/31 03:17:12;;;;;;;38.38;18.02;;;4.00;99.90;;;;;;5032115;28;20166;-65
2022/01/31 03:19:42;;;;;;;42.83;18.27;;;4.00;99.90;;;;;;5033570;28;20103;-65
2022/01/31 03:22:09;;;;;;;51.60;18.83;;;4.00;99.90;;;;;;5015572;28;20033;-66
2022/01/31 03:24:36;;;;;;;38.08;17.80;;;4.00;99.90;;;;;;5033386;28;20036;-65
2022/01/31 03:27:03;;;;;;;39.63;18.35;;;4.00;99.90;;;;;;5015670;28;20171;-65
2022/01/31 03:29:29;;;;;;;43.60;19.25;;;4.10;99.90;;;;;;5033287;28;20060;-66
2022/01/31 03:31:56;;;;;;;43.38;19.13;;;4.00;99.90;;;;;;5033379;28;20085;-66
2022/01/31 03:34:26;;;;;;;43.13;17.73;;;4.10;99.90;;;;;;5033326;28;20030;-66
2022/01/31 03:36:52;;;;;;;35.33;17.27;;;4.00;99.90;;;;;;5037185;28;20033;-65
2022/01/31 03:39:24;;;;;;;36.40;17.33;;;3.90;99.90;;;;;;5037716;28;20033;-65
2022/01/31 03:41:51;;;;;;;38.10;16.73;;;3.80;99.90;;;;;;5019303;28;20026;-65
2022/01/31 03:44:18;;;;;;;36.88;15.90;;;3.80;99.90;;;;;;5037412;28;20022;-65
2022/01/31 03:46:47;;;;;;;37.15;16.58;;;3.80;99.90;;;;;;5037044;28;20028;-65
2022/01/31 03:49:20;;;;;;;42.75;16.75;;;3.90;99.90;;;;;;5035793;28;20041;-66
2022/01/31 03:51:48;;;;;;;33.05;15.90;;;3.80;99.90;;;;;;5037142;28;20363;-65
2022/01/31 03:54:21;;;;;;;31.38;15.15;;;3.80;99.90;;;;;;5036795;28;20478;-65
2022/01/31 03:56:48;;;;;;;37.90;14.60;;;3.80;99.90;;;;;;5036818;28;20032;-65
2022/01/31 03:59:40;;;;;;;27.45;13.98;;;3.80;99.90;;;;;;5033585;28;20029;-65
2022/01/31 04:02:10;;;;;;;32.38;13.45;;;3.80;99.90;;;;;;5036795;28;20017;-65
2022/01/31 04:04:36;;;;;;;25.33;13.57;;;3.90;99.90;;;;;;5037004;28;20122;-65
2022/01/31 04:07:03;;;;;;;30.35;13.93;;;3.90;99.90;;;;;;5035761;28;20021;-65
2022/01/31 04:09:30;;;;;;;30.27;13.25;;;3.90;99.90;;;;;;5036839;28;20042;-65
2022/01/31 04:11:57;;;;;;;27.48;13.32;;;3.80;99.90;;;;;;5036867;28;20490;-65
2022/01/31 04:14:27;;;;;;;31.98;13.70;;;3.70;99.90;;;;;;5036365;28;20046;-65
2022/01/31 04:16:56;;;;;;;29.80;13.05;;;3.70;99.90;;;;;;5036721;28;20076;-66
2022/01/31 04:19:24;;;;;;;29.83;12.32;;;3.70;99.90;;;;;;5036944;28;20033;-65
2022/01/31 04:21:51;;;;;;;32.35;12.48;;;3.70;99.90;;;;;;5036443;28;20479;-65
2022/01/31 04:24:23;;;;;;;28.80;12.65;;;3.70;99.90;;;;;;5036964;28;20455;-65
2022/01/31 04:26:59;;;;;;;29.63;11.80;;;3.70;99.90;;;;;;5036591;28;20430;-65
2022/01/31 04:29:29;;;;;;;28.80;13.10;;;3.70;99.90;;;;;;5036455;28;20033;-65
2022/01/31 04:31:56;;;;;;;29.33;12.65;;;3.80;99.90;;;;;;5036122;28;20040;-66
2022/01/31 04:34:26;;;;;;;28.17;12.60;;;3.80;99.90;;;;;;5036508;28;20045;-65
2022/01/31 04:36:55;;;;;;;26.38;12.68;;;3.70;99.90;;;;;;5036373;28;20060;-65
2022/01/31 04:39:22;;;;;;;34.50;12.02;;;3.80;99.90;;;;;;5036095;28;20034;-65
2022/01/31 04:41:49;;;;;;;31.92;12.90;;;3.70;99.90;;;;;;5036309;28;20021;-65
2022/01/31 04:44:17;;;;;;;25.88;11.90;;;3.70;99.90;;;;;;5036310;28;20044;-65
2022/01/31 04:46:49;;;;;;;27.75;12.68;;;3.70;99.90;;;;;;5035621;28;20033;-65
2022/01/31 04:49:16;;;;;;;34.90;12.38;;;3.60;99.90;;;;;;5036247;28;20034;-65
2022/01/31 04:51:43;;;;;;;23.38;11.75;;;3.60;99.90;;;;;;5034949;28;20375;-65
2022/01/31 04:54:10;;;;;;;30.88;11.82;;;3.60;99.90;;;;;;5035726;28;20091;-65
2022/01/31 04:56:39;;;;;;;26.60;12.45;;;3.60;99.90;;;;;;5036326;28;20045;-65
2022/01/31 04:59:05;;;;;;;33.08;11.88;;;3.60;99.90;;;;;;5036242;28;20044;-65
2022/01/31 05:01:32;;;;;;;32.10;12.98;;;3.60;99.90;;;;;;5035893;28;20045;-65
2022/01/31 05:03:59;;;;;;;35.25;13.68;;;3.60;99.90;;;;;;5035808;28;20029;-64
2022/01/31 05:06:31;;;;;;;41.15;15.23;;;3.60;99.90;;;;;;5035801;28;20049;-65
2022/01/31 05:08:58;;;;;;;46.33;16.40;;;3.60;99.90;;;;;;5035814;28;20124;-65
2022/01/31 05:11:25;;;;;;;49.63;19.00;;;3.60;99.90;;;;;;5036062;28;20460;-65
2022/01/31 05:13:52;;;;;;;54.25;19.15;;;3.60;99.90;;;;;;5035272;28;20052;-65
2022/01/31 05:16:18;;;;;;;54.10;19.98;;;3.50;99.90;;;;;;5035348;28;20148;-65
2022/01/31 05:18:45;;;;;;;74.05;24.20;;;3.50;99.90;;;;;;5035619;28;20057;-65
2022/01/31 05:21:12;;;;;;;70.10;24.40;;;3.50;99.90;;;;;;5035530;28;20041;-65
2022/01/31 05:23:38;;;;;;;72.75;25.58;;;3.50;99.90;;;;;;5035512;28;20060;-65
2022/01/31 05:26:09;;;;;;;71.03;24.33;;;3.50;99.90;;;;;;5035407;28;20045;-65
2022/01/31 05:28:35;;;;;;;58.08;21.55;;;3.40;99.90;;;;;;5034005;28;20025;-65
2022/01/31 05:31:07;;;;;;;52.88;19.98;;;3.40;99.90;;;;;;5035647;28;20394;-65
2022/01/31 05:33:36;;;;;;;58.33;20.02;;;3.40;99.90;;;;;;5035330;28;20510;-65
2022/01/31 05:36:03;;;;;;;56.13;19.88;;;3.40;99.90;;;;;;5035286;28;20116;-65
2022/01/31 05:38:34;;;;;;;57.42;19.48;;;3.40;99.90;;;;;;5035180;28;20038;-65
2022/01/31 05:41:05;;;;;;;52.95;18.23;;;3.40;99.90;;;;;;5034074;28;20038;-65
2022/01/31 05:43:33;;;;;;;44.20;18.38;;;3.40;99.90;;;;;;5035205;28;20120;-65
2022/01/31 05:45:59;;;;;;;49.42;18.63;;;3.40;99.90;;;;;;5035129;28;20033;-65
2022/01/31 05:48:29;;;;;;;50.90;18.50;;;3.30;99.90;;;;;;5034977;28;20105;-65
2022/01/31 05:50:56;;;;;;;36.97;16.73;;;3.30;99.90;;;;;;5034764;28;20425;-65
2022/01/31 05:53:23;;;;;;;44.03;16.77;;;3.30;99.90;;;;;;5034807;28;20033;-65
2022/01/31 05:55:50;;;;;;;37.25;14.32;;;3.30;99.90;;;;;;5035162;28;20107;-65
2022/01/31 05:58:17;;;;;;;31.58;13.48;;;3.30;99.90;;;;;;5033743;28;20033;-65
2022/01/31 06:00:49;;;;;;;36.88;13.73;;;3.30;99.90;;;;;;5035102;28;20022;-65
2022/01/31 06:03:16;;;;;;;31.42;14.55;;;3.30;99.90;;;;;;5034449;28;20060;-65
2022/01/31 06:05:42;;;;;;;29.67;12.90;;;3.20;99.90;;;;;;5034649;28;20433;-65
2022/01/31 06:08:09;;;;;;;26.90;11.93;;;3.20;99.90;;;;;;5034847;28;20060;-65
2022/01/31 06:10:42;;;;;;;33.25;12.60;;;3.30;99.90;;;;;;5034385;28;20521;-65
2022/01/31 06:13:09;;;;;;;27.60;11.43;;;3.30;99.90;;;;;;5034065;28;20049;-66
2022/01/31 06:15:35;;;;;;;26.85;11.68;;;3.30;99.90;;;;;;5034378;28;20430;-65
2022/01/31 06:18:04;;;;;;;28.13;11.45;;;3.20;99.90;;;;;;5034405;28;20057;-65
2022/01/31 06:20:34;;;;;;;31.13;10.68;;;3.10;99.90;;;;;;5034203;28;20156;-65
2022/01/31 06:23:01;;;;;;;25.92;10.85;;;3.20;99.90;;;;;;5034039;28;20076;-65
2022/01/31 06:25:28;;;;;;;27.30;11.57;;;3.30;99.90;;;;;;5034304;28;20038;-65
2022/01/31 06:27:58;;;;;;;27.33;11.48;;;3.30;99.90;;;;;;5016204;28;20033;-65
2022/01/31 06:30:26;;;;;;;26.38;10.88;;;3.40;99.90;;;;;;5016174;28;20091;-65
2022/01/31 06:32:54;;;;;;;26.45;10.00;;;3.40;99.90;;;;;;5033884;28;20414;-65
2022/01/31 06:35:21;;;;;;;25.67;11.75;;;3.50;99.90;;;;;;5034212;28;20390;-65
2022/01/31 06:37:54;;;;;;;28.05;11.95;;;3.50;99.90;;;;;;5033663;28;20043;-66
2022/01/31 06:40:20;;;;;;;37.67;13.77;;;3.50;99.90;;;;;;5033703;28;20025;-65
2022/01/31 06:42:47;;;;;;;32.45;12.07;;;3.50;99.90;;;;;;5033761;28;20463;-65
2022/01/31 06:45:17;;;;;;;25.90;10.38;;;3.60;99.90;;;;;;5016504;28;20041;-65
2022/01/31 06:47:44;;;;;;;31.02;10.60;;;3.60;99.90;;;;;;5033687;28;20080;-65
2022/01/31 06:50:10;;;;;;;24.35;9.73;;;3.70;99.90;;;;;;5033537;28;20029;-66
2022/01/31 06:52:38;;;;;;;22.25;9.10;;;3.80;99.90;;;;;;5033840;28;20072;-66
2022/01/31 06:55:07;;;;;;;21.63;8.80;;;3.80;99.90;;;;;;5015819;28;20491;-66
2022/01/31 06:57:34;;;;;;;14.43;7.43;;;3.90;99.90;;;;;;5033535;28;20056;-66
2022/01/31 07:00:07;;;;;;;18.02;7.43;;;4.00;99.90;;;;;;5033520;28;20034;-66
2022/01/31 07:02:35;;;;;;;20.73;7.22;;;4.00;99.90;;;;;;5033836;28;20507;-65
2022/01/31 07:05:02;;;;;;;19.70;7.93;;;4.00;99.90;;;;;;5033599;28;20034;-66
2022/01/31 07:07:30;;;;;;;20.95;7.65;;;4.10;99.90;;;;;;5033658;28;20433;-66
2022/01/31 07:09:57;;;;;;;13.70;7.35;;;4.10;99.90;;;;;;5033533;28;20048;-66
2022/01/31 07:12:32;;;;;;;16.25;7.53;;;4.30;99.90;;;;;;5033535;28;20449;-66
2022/01/31 07:14:59;;;;;;;12.77;6.75;;;4.40;99.90;;;;;;5033644;28;20046;-66
2022/01/31 07:17:36;;;;;;;17.05;6.40;;;4.60;99.90;;;;;;5033317;28;20414;-66
2022/01/31 07:20:10;;;;;;;14.23;7.07;;;4.60;99.90;;;;;;5033251;28;20029;-66
2022/01/31 07:22:42;;;;;;;17.50;8.02;;;4.80;99.90;;;;;;5033361;28;20051;-66
2022/01/31 07:25:20;;;;;;;27.73;9.30;;;4.80;99.90;;;;;;5033513;28;20032;-65
2022/01/31 07:27:48;;;;;;;14.38;7.38;;;5.00;99.90;;;;;;5033256;28;20041;-66
2022/01/31 07:30:15;;;;;;;16.95;8.15;;;5.10;99.90;;;;;;5033558;28;20064;-66
2022/01/31 07:32:42;;;;;;;16.50;7.20;;;5.30;99.90;;;;;;5015444;28;20029;-66
2022/01/31 07:35:14;;;;;;;17.23;6.03;;;5.40;99.90;;;;;;5015247;28;20030;-67
2022/01/31 07:37:40;;;;;;;10.35;5.47;;;5.40;99.90;;;;;;5033407;28;20369;-66
2022/01/31 07:40:08;;;;;;;16.50;6.97;;;5.60;99.90;;;;;;5033116;28;20479;-66
2022/01/31 07:42:36;;;;;;;14.50;7.53;;;5.70;99.90;;;;;;5033112;28;20029;-66
2022/01/31 07:45:03;;;;;;;17.85;6.88;;;5.80;99.90;;;;;;5033086;28;20022;-66
2022/01/31 07:47:32;;;;;;;20.10;8.80;;;6.00;99.90;;;;;;5033128;28;20116;-66
2022/01/31 07:49:59;;;;;;;13.23;6.72;;;6.00;99.90;;;;;;5033027;28;20025;-66
2022/01/31 07:52:25;;;;;;;13.40;6.80;;;6.10;99.90;;;;;;5033076;28;20021;-66
2022/01/31 07:54:53;;;;;;;15.40;6.72;;;6.20;99.90;;;;;;5033260;28;20116;-66
2022/01/31 07:57:24;;;;;;;17.95;6.45;;;6.30;99.90;;;;;;5033058;28;20456;-66
2022/01/31 07:59:52;;;;;;;14.48;7.10;;;6.40;99.90;;;;;;5032931;28;20525;-67
2022/01/31 08:02:18;;;;;;;18.27;7.25;;;6.50;99.90;;;;;;5032933;28;20446;-66
2022/01/31 08:04:45;;;;;;;16.35;7.57;;;6.60;99.90;;;;;;5032918;28;20030;-66
2022/01/31 08:07:12;;;;;;;28.52;7.72;;;6.70;99.90;;;;;;5032896;28;20024;-66
2022/01/31 08:09:40;;;;;;;20.90;7.63;;;6.90;99.90;;;;;;5032914;28;20029;-66
2022/01/31 08:12:07;;;;;;;14.85;7.28;;;7.00;99.90;;;;;;5032940;28;20045;-66
2022/01/31 08:14:36;;;;;;;18.30;7.20;;;7.00;99.90;;;;;;5050222;28;20409;-66
2022/01/31 08:17:02;;;;;;;16.40;6.57;;;7.10;99.90;;;;;;5052897;28;20021;-66
2022/01/31 08:19:29;;;;;;;19.80;6.38;;;7.30;99.90;;;;;;5052926;28;20050;-67
2022/01/31 08:21:56;;;;;;;13.75;6.82;;;7.40;99.90;;;;;;5055254;28;20044;-66
2022/01/31 08:24:22;;;;;;;22.95;7.20;;;7.50;99.90;;;;;;5056248;28;20028;-66
2022/01/31 08:26:49;;;;;;;14.63;7.32;;;7.70;99.90;;;;;;5056282;28;20036;-66
2022/01/31 08:29:28;;;;;;;12.80;6.53;;;7.90;99.90;;;;;;5056106;28;20351;-66
2022/01/31 08:31:57;;;;;;;12.25;5.63;;;8.00;99.90;;;;;;5056373;28;20029;-66
2022/01/31 08:35:47;;;;;;;16.50;5.38;;;8.10;99.90;;;;;;5056037;28;20032;-66
2022/01/31 08:37:14;;;;;;;7.53;4.28;;;8.10;99.90;;;;;;5055124;28;20029;-66
2022/01/31 08:39:42;;;;;;;11.43;4.75;;;8.10;99.90;;;;;;5056071;28;20035;-66
2022/01/31 08:42:09;;;;;;;10.80;4.82;;;8.30;99.90;;;;;;5056011;28;20018;-66
2022/01/31 08:44:35;;;;;;;10.77;4.65;;;8.30;99.90;;;;;;5054801;28;20056;-66
2022/01/31 08:47:10;;;;;;;12.95;4.00;;;8.40;99.90;;;;;;5055922;28;20056;-66
2022/01/31 08:49:37;;;;;;;9.38;3.20;;;8.50;99.90;;;;;;5055770;28;20480;-66
2022/01/31 08:52:04;;;;;;;7.10;3.40;;;8.50;99.90;;;;;;5056086;28;20493;-66
2022/01/31 08:54:37;;;;;;;9.32;3.10;;;8.60;99.90;;;;;;5055610;28;20084;-66
2022/01/31 08:57:04;;;;;;;6.53;2.63;;;8.60;99.90;;;;;;5055648;28;20508;-66
2022/01/31 08:59:32;;;;;;;3.67;2.30;;;8.80;99.90;;;;;;5055564;28;20067;-66
2022/01/31 09:02:10;;;;;;;4.60;2.00;;;8.80;99.90;;;;;;5055546;28;20479;-66
2022/01/31 09:04:56;;;;;;;4.07;2.20;;;8.80;99.90;;;;;;5055183;28;20050;-67
2022/01/31 09:07:24;;;;;;;3.80;2.10;;;8.80;99.90;;;;;;5055469;28;20029;-66
2022/01/31 09:09:53;;;;;;;5.63;2.65;;;8.90;99.90;;;;;;5055585;28;20021;-66
2022/01/31 09:12:23;;;;;;;3.28;1.65;;;8.90;99.90;;;;;;5055674;28;20096;-67
2022/01/31 09:14:50;;;;;;;3.83;1.77;;;9.00;99.90;;;;;;5054953;28;20520;-66
2022/01/31 09:17:16;;;;;;;3.88;1.58;;;9.00;99.90;;;;;;5055603;28;20112;-66
2022/01/31 09:19:43;;;;;;;2.72;1.63;;;9.10;99.90;;;;;;5068939;28;20546;-66
2022/01/31 09:22:09;;;;;;;6.20;2.10;;;9.10;99.90;;;;;;5075405;28;20402;-66
2022/01/31 09:24:42;;;;;;;3.90;2.03;;;9.30;99.90;;;;;;5328238;22;20100;-93
2022/01/31 09:27:13;;;;;;;3.08;1.90;;;9.40;99.90;;;;;;5002087;28;20042;-92
2022/01/31 09:29:40;;;;;;;6.05;1.95;;;9.40;99.90;;;;;;5002241;28;20026;-91
2022/01/31 09:32:07;;;;;;;3.15;1.65;;;9.50;99.90;;;;;;4997650;28;20029;-93
2022/01/31 09:34:34;;;;;;;3.67;1.13;;;9.50;99.90;;;;;;5014273;28;20491;-92
2022/01/31 09:37:01;;;;;;;1.75;1.38;;;9.60;99.90;;;;;;4998813;28;20140;-93
2022/01/31 09:39:28;;;;;;;4.22;2.25;;;9.80;99.90;;;;;;5015617;28;20115;-93
2022/01/31 09:41:57;;;;;;;4.18;1.45;;;9.80;99.90;;;;;;5014855;28;20133;-93
2022/01/31 09:44:43;;;;;;;2.85;1.60;;;9.80;99.90;;;;;;5016226;28;20037;-92
2022/01/31 09:47:21;;;;;;;3.35;1.58;;;9.80;99.90;;;;;;5015845;28;20033;-94
2022/01/31 09:50:03;;;;;;;2.33;1.63;;;10.00;99.90;;;;;;5015651;28;20042;-94
2022/01/31 09:52:47;;;;;;;1.63;1.30;;;10.10;99.90;;;;;;5017099;28;20033;-93
2022/01/31 09:55:51;;;;;;;26.80;3.75;;;10.10;99.90;;;;;;5016417;28;20364;-93
2022/01/31 09:58:31;;;;;;;2.50;1.00;;;10.10;99.90;;;;;;5000054;28;20030;-93
2022/01/31 10:01:09;;;;;;;2.95;1.05;;;10.20;99.90;;;;;;5016177;28;20080;-94
2022/01/31 10:04:54;;;;;;;1.75;0.93;;;10.30;99.90;;;;;;5016166;28;20038;-93
2022/01/31 10:07:22;;;;;;;2.28;0.75;;;10.40;99.90;;;;;;5015920;28;20041;-94
2022/01/31 10:09:50;;;;;;;7.03;1.35;;;10.40;99.90;;;;;;5014907;28;20491;-92
2022/01/31 10:16:26;;;;;;;2.08;1.00;;;10.50;99.90;;;;;;5015184;28;20547;-92
2022/01/31 10:18:09;;;;;;;2.13;1.38;;;10.60;99.90;;;;;;5009664;28;20029;-92
2022/01/31 10:20:36;;;;;;;2.70;1.30;;;10.60;99.90;;;;;;4979360;28;20056;-93
2022/01/31 10:23:12;;;;;;;5.35;1.75;;;10.70;99.90;;;;;;4981701;28;20065;-92
2022/01/31 10:25:39;;;;;;;5.30;1.92;;;10.80;99.90;;;;;;4994597;28;20046;-93
2022/01/31 10:28:18;;;;;;;5.25;1.58;;;10.90;99.90;;;;;;4996832;28;20031;-94
2022/01/31 10:30:47;;;;;;;3.75;1.50;;;10.90;99.90;;;;;;4994972;28;20030;-94
2022/01/31 10:33:33;;;;;;;1.50;1.40;;;10.90;99.90;;;;;;4978381;28;20116;-93
2022/01/31 10:36:00;;;;;;;4.60;1.50;;;11.00;99.90;;;;;;4995050;28;20039;-91
2022/01/31 10:38:34;;;;;;;5.65;1.27;;;11.10;99.90;;;;;;4995035;28;20034;-92
2022/01/31 10:51:58;;;;;;;7.50;1.60;;;11.30;99.90;;;;;;4995549;28;20062;-91
2022/01/31 10:57:02;;;;;;;7.68;1.17;;;11.30;99.90;;;;;;4994975;28;20031;-94
2022/01/31 10:59:33;;;;;;;3.03;1.50;;;11.40;99.90;;;;;;4979362;28;20030;-94
2022/01/31 11:02:03;;;;;;;1.30;0.90;;;11.50;99.90;;;;;;4978665;28;20031;-93
2022/01/31 11:04:37;;;;;;;1.45;0.98;;;11.50;99.90;;;;;;4979036;28;20030;-93
2022/01/31 11:07:08;;;;;;;4.28;1.42;;;11.60;99.90;;;;;;4978189;28;20027;-91
2022/01/31 11:09:35;;;;;;;1.90;1.10;;;11.60;99.90;;;;;;4978070;28;20085;-92
2022/01/31 11:12:04;;;;;;;3.47;1.75;;;11.60;99.90;;;;;;4979118;28;20031;-90
2022/01/31 11:14:32;;;;;;;2.10;0.88;;;11.50;99.90;;;;;;4978274;28;20047;-92
2022/01/31 11:17:10;;;;;;;3.83;1.75;;;11.50;99.90;;;;;;4978303;28;20491;-90
2022/01/31 11:19:38;;;;;;;3.53;1.77;;;11.60;99.90;;;;;;4978563;28;20062;-93
2022/01/31 11:22:16;;;;;;;2.55;1.35;;;11.60;99.90;;;;;;4978268;28;20391;-92
2022/01/31 11:24:54;;;;;;;2.83;1.40;;;11.60;99.90;;;;;;4994314;28;20064;-93
2022/01/31 11:27:24;;;;;;;5.00;1.98;;;11.70;99.90;;;;;;4977859;28;20399;-93
2022/01/31 11:29:56;;;;;;;5.88;1.83;;;11.90;99.90;;;;;;4993714;28;20034;-93
2022/01/31 11:32:27;;;;;;;5.45;1.50;;;11.90;99.90;;;;;;4993632;28;20443;-93
2022/01/31 11:34:55;;;;;;;2.63;1.38;;;11.90;99.90;;;;;;4993627;28;20045;-93
2022/01/31 11:37:22;;;;;;;4.88;1.38;;;12.00;99.90;;;;;;4977584;28;20027;-92
2022/01/31 11:39:57;;;;;;;5.13;1.83;;;11.90;99.90;;;;;;4977794;28;20030;-93
2022/01/31 11:42:23;;;;;;;;;;;11.90;99.90;;;;;;4978041;28;20053;-93
2022/01/31 11:45:00;;;;;;;2.95;1.25;;;11.90;99.90;;;;;;4977630;28;19909;-93
2022/01/31 11:47:28;;;;;;;3.22;1.33;;;11.80;99.90;;;;;;4994021;28;20062;-93
2022/01/31 11:50:06;;;;;;;2.67;1.38;;;11.80;99.90;;;;;;4977882;28;20042;-93
2022/01/31 11:52:45;;;;;;;8.70;1.75;;;11.90;99.90;;;;;;4978002;28;20022;-93
2022/01/31 11:55:15;;;;;;;2.65;1.20;;;12.10;99.90;;;;;;4997096;28;20129;-92
2022/01/31 11:57:46;;;;;;;3.53;1.48;;;12.20;99.90;;;;;;4988668;28;20031;-91
2022/01/31 12:00:15;;;;;;;2.72;1.73;;;12.30;99.90;;;;;;4997761;28;20031;-92
2022/01/31 12:02:50;;;;;;;2.80;1.73;;;12.20;99.90;;;;;;4997869;28;20028;-92
2022/01/31 12:05:22;;;;;;;1.90;1.50;;;12.20;99.90;;;;;;4982072;28;20042;-93
2022/01/31 12:08:20;;;;;;;2.10;1.83;;;12.20;99.90;;;;;;4997753;28;20058;-92
2022/01/31 12:11:13;;;;;;;4.53;1.60;;;12.20;99.90;;;;;;4977865;28;20034;-91
2022/01/31 12:13:50;;;;;;;3.05;1.95;;;12.30;99.90;;;;;;4982718;28;20476;-93
2022/01/31 12:16:44;;;;;;;7.50;3.30;;;12.30;99.90;;;;;;4992832;28;20113;-94
2022/01/31 12:22:12;;;;;;;7.97;2.17;;;12.20;99.90;;;;;;4982174;28;20045;-93
2022/01/31 12:24:39;;;;;;;3.75;2.10;;;12.20;99.90;;;;;;4964339;28;20377;-93
2022/01/31 12:27:11;;;;;;;4.80;2.45;;;12.30;99.90;;;;;;4976950;28;20057;-93
2022/01/31 12:29:59;;;;;;;2.05;1.23;;;12.30;99.90;;;;;;5020136;28;20026;-94
2022/01/31 12:40:58;;;;;;;5.07;2.30;;;12.40;99.90;;;;;;5158662;23;20428;-82
2022/01/31 12:43:51;;;;;;;4.13;1.42;;;12.50;99.90;;;;;;4960999;28;20027;-68
2022/01/31 12:46:17;;;;;;;3.85;1.95;;;12.50;99.90;;;;;;4977492;28;20047;-68
2022/01/31 12:49:10;;;;;;;4.50;2.30;;;12.60;99.90;;;;;;4977925;28;20477;-68
2022/01/31 12:52:07;;;;;;;3.47;1.73;;;12.60;99.90;;;;;;4977615;28;20038;-68
2022/01/31 12:54:38;;;;;;;5.00;2.00;;;12.70;99.90;;;;;;4977524;28;20572;-68
2022/01/31 12:57:13;;;;;;;8.95;2.10;;;12.70;99.90;;;;;;4977738;28;20038;-68
2022/01/31 12:59:57;;;;;;;3.13;1.38;;;12.70;99.90;;;;;;4977059;28;20031;-68
2022/01/31 13:02:25;;;;;;;2.72;1.70;;;12.80;99.90;;;;;;4976658;28;20030;-68
2022/01/31 13:04:51;;;;;;;8.88;2.20;;;12.70;99.90;;;;;;4976752;28;20035;-68
2022/01/31 13:07:21;;;;;;;1.98;1.45;;;12.60;99.90;;;;;;4976540;28;20073;-63
2022/01/31 13:09:48;;;;;;;2.50;1.75;;;12.60;99.90;;;;;;4976905;28;20031;-63
2022/01/31 13:12:17;;;;;;;5.43;1.48;;;12.50;99.90;;;;;;4976962;28;20508;-63
2022/01/31 13:14:52;;;;;;;4.55;2.03;;;12.50;99.90;;;;;;4976818;28;20045;-63
2022/01/31 13:17:25;;;;;;;5.18;1.60;;;12.60;99.90;;;;;;4968114;28;20404;-63
2022/01/31 13:20:04;;;;;;;5.60;1.38;;;12.60;99.90;;;;;;4966137;28;20027;-63
2022/01/31 13:22:52;;;;;;;2.55;1.27;;;12.60;99.90;;;;;;4966109;28;20023;-63
2022/01/31 13:25:18;;;;;;;3.63;2.00;;;12.60;99.90;;;;;;4966968;28;20413;-63
2022/01/31 13:27:47;;;;;;;2.25;1.55;;;12.60;99.90;;;;;;4965294;28;20054;-63
2022/01/31 13:30:19;;;;;;;3.08;1.80;;;12.50;99.90;;;;;;4966329;28;20134;-63